Miami, Florida
Current Conditions -  °F | °C
As of 11:53 PM on Wednesday 26 Nov 2014 (Local Time) from KMIA Reporting Station
Overcast Overcast  
Wind Chill: 59°   Ceiling: 20000
Heat Index: 59°   Visibility: 10mi
Dew Point: 43°   Wind: 6mph
Humidity: 55%   Direction: 340°NNW
Pressure: 30.19"   Gusts: NA
Location:  25.77°N, 80.19°W
Report Text: KMIA 270453Z 34005KT 10SM BKN200 OVC250 15/06 A3019 RMK AO2 SLP221 T01500061 402830150 VISNO RWY 9L $
Loading
Personal Weather Stations






























Interactive Weather Map New forecast layout! Learn more

10-Day Weather Forecast

Advertisements
Track Severe Weather on mobile